Time;durP1;ratioP1;P1;durP2;ratioP2;P2;SDS_P1;SDS_P2;PMS_P1;PMS_P2;Temp;Humidity;BMP_temperature;BMP_pressure;BME280_temperature;BME280_humidity;BME280_pressure;Samples;Min_cycle;Max_cycle;Signal;HPM_P1;HPM_P2
2022/08/27 00:00:39;;;;;;;6.73;1.90;;;;;;;25.84;52.41;98377.75;6015903;23;20248;-92
2022/08/27 00:03:05;;;;;;;6.17;1.60;;;;;;;25.74;52.21;98378.06;6015752;23;20245;-92
2022/08/27 00:05:30;;;;;;;10.10;1.97;;;;;;;25.70;52.80;98382.19;6040376;23;20181;-92
2022/08/27 00:07:56;;;;;;;7.07;1.93;;;;;;;25.64;51.87;98380.28;6016069;23;20176;-93
2022/08/27 00:10:24;;;;;;;5.73;1.70;;;;;;;25.52;53.09;98381.84;6015655;23;20547;-93
2022/08/27 00:12:49;;;;;;;6.80;1.70;;;;;;;25.46;53.65;98375.38;6015653;23;20196;-93
2022/08/27 00:15:16;;;;;;;5.17;1.67;;;;;;;25.43;53.49;98373.03;6015872;23;20158;-93
2022/08/27 00:17:44;;;;;;;3.70;1.53;;;;;;;25.49;53.48;98363.44;6040608;23;20149;-92
2022/08/27 00:20:11;;;;;;;6.33;1.50;;;;;;;25.45;53.88;98367.47;6015737;23;20227;-92
2022/08/27 00:22:37;;;;;;;3.77;1.53;;;;;;;25.38;53.81;98366.59;6040843;23;20165;-92
2022/08/27 00:25:04;;;;;;;8.60;2.57;;;;;;;25.28;54.12;98369.63;6040527;23;20177;-92
2022/08/27 00:27:29;;;;;;;6.10;1.57;;;;;;;25.26;54.43;98362.78;6015708;23;20667;-92
2022/08/27 00:29:55;;;;;;;6.13;2.03;;;;;;;25.23;54.20;98361.31;6015975;23;20185;-92
2022/08/27 00:32:21;;;;;;;16.60;2.10;;;;;;;25.24;54.64;98360.28;6015445;23;20173;-92
2022/08/27 00:34:46;;;;;;;3.20;1.50;;;;;;;25.19;54.81;98357.34;6015590;23;20161;-93
2022/08/27 00:37:12;;;;;;;8.87;1.80;;;;;;;25.14;54.90;98359.75;6015721;23;20188;-93
2022/08/27 00:39:38;;;;;;;10.87;2.60;;;;;;;25.10;54.48;98358.50;6016011;23;20225;-92
2022/08/27 00:42:04;;;;;;;6.30;2.07;;;;;;;25.01;54.52;98365.00;6015583;23;20165;-92
2022/08/27 00:44:30;;;;;;;2.93;1.30;;;;;;;24.98;54.98;98368.06;6016438;23;20157;-91
2022/08/27 00:47:01;;;;;;;3.57;1.47;;;;;;;24.90;55.28;98377.03;6015339;23;20186;-92
2022/08/27 00:49:44;;;;;;;4.93;2.03;;;;;;;24.80;55.45;98381.88;6015397;23;20158;-93
2022/08/27 00:52:20;;;;;;;5.23;1.90;;;;;;;24.73;55.70;98383.63;6015843;23;20232;-93
2022/08/27 00:54:46;;;;;;;3.23;1.77;;;;;;;24.65;55.16;98382.91;6015548;23;20164;-92
2022/08/27 00:57:13;;;;;;;8.43;1.77;;;;;;;24.62;54.99;98373.41;6015305;23;20200;-92
2022/08/27 00:59:41;;;;;;;3.50;1.50;;;;;;;24.58;54.13;98376.66;6015293;23;20188;-93
2022/08/27 01:02:20;;;;;;;5.60;1.90;;;;;;;24.62;53.89;98377.91;6039977;23;20154;-92
2022/08/27 01:04:57;;;;;;;12.93;1.53;;;;;;;24.53;54.04;98376.38;6015228;23;20482;-92
2022/08/27 01:07:25;;;;;;;5.70;2.27;;;;;;;24.52;54.13;98380.91;6015145;23;20169;-91
2022/08/27 01:09:52;;;;;;;3.30;1.47;;;;;;;24.54;53.66;98384.22;6015380;23;20169;-91
2022/08/27 01:12:19;;;;;;;8.10;1.90;;;;;;;24.52;54.63;98378.22;6040207;23;20229;-93
2022/08/27 01:14:45;;;;;;;5.87;1.60;;;;;;;24.54;54.76;98384.22;6017288;23;20180;-92
2022/08/27 01:17:13;;;;;;;7.63;2.30;;;;;;;24.58;55.43;98380.13;6017245;23;20184;-92
2022/08/27 01:19:52;;;;;;;6.67;2.07;;;;;;;24.50;55.52;98374.91;6017188;23;20575;-92
2022/08/27 01:22:47;;;;;;;11.93;2.17;;;;;;;24.48;55.72;98371.56;6042383;23;20212;-92
2022/08/27 01:25:16;;;;;;;3.17;1.63;;;;;;;24.52;55.24;98370.19;6042082;23;20174;-92
2022/08/27 01:27:43;;;;;;;5.37;2.07;;;;;;;24.52;55.11;98372.88;6017090;23;20162;-92
2022/08/27 01:30:10;;;;;;;6.93;1.77;;;;;;;24.39;55.41;98378.06;6017680;23;20162;-93
2022/08/27 01:32:37;;;;;;;17.50;2.23;;;;;;;24.41;55.76;98374.16;6041552;23;20172;-92
2022/08/27 01:35:07;;;;;;;6.07;2.13;;;;;;;24.36;55.81;98375.75;6016949;23;20570;-91
2022/08/27 01:37:34;;;;;;;3.17;1.30;;;;;;;24.34;56.69;98372.41;6041615;23;20154;-92
2022/08/27 01:40:00;;;;;;;4.80;1.80;;;;;;;24.31;56.86;98373.63;6041690;23;20475;-93
2022/08/27 01:42:36;;;;;;;8.40;1.97;;;;;;;24.25;56.81;98374.34;6017248;23;20168;-91
2022/08/27 01:45:07;;;;;;;2.77;1.83;;;;;;;24.11;57.53;98383.22;6041923;23;20177;-92
2022/08/27 01:47:34;;;;;;;4.13;1.50;;;;;;;24.10;57.27;98383.41;6017085;23;20158;-92
2022/08/27 01:50:00;;;;;;;5.67;2.37;;;;;;;24.13;57.24;98377.69;6041693;23;20150;-91
2022/08/27 01:52:29;;;;;;;8.10;1.50;;;;;;;24.01;56.70;98385.31;6017110;23;20157;-92
2022/08/27 01:54:54;;;;;;;8.53;2.23;;;;;;;24.06;56.49;98390.09;6016725;23;20158;-92
2022/08/27 01:57:20;;;;;;;5.17;1.73;;;;;;;23.98;56.61;98385.66;6017159;23;20589;-92
2022/08/27 01:59:46;;;;;;;3.20;1.53;;;;;;;23.99;56.58;98389.19;6041589;23;20476;-91
2022/08/27 02:02:15;;;;;;;4.43;1.60;;;;;;;23.95;56.50;98386.03;6041559;23;20150;-92
2022/08/27 02:04:41;;;;;;;4.23;1.73;;;;;;;24.01;56.61;98382.63;6016994;23;20158;-92
2022/08/27 02:07:07;;;;;;;6.50;1.73;;;;;;;23.97;56.71;98380.50;6016595;23;20169;-92
2022/08/27 02:09:33;;;;;;;6.43;1.70;;;;;;;23.93;56.37;98381.88;6041648;23;20470;-92
2022/08/27 02:11:59;;;;;;;4.47;1.47;;;;;;;23.76;57.31;98374.03;6041448;23;20154;-92
2022/08/27 02:14:25;;;;;;;6.27;2.23;;;;;;;23.78;57.49;98377.34;6016579;23;20168;-92
2022/08/27 02:16:51;;;;;;;5.63;1.73;;;;;;;23.83;57.21;98379.47;6041431;23;20589;-92
2022/08/27 02:19:17;;;;;;;3.07;1.50;;;;;;;23.85;57.41;98382.78;6016730;23;20244;-92
2022/08/27 02:21:43;;;;;;;6.17;2.57;;;;;;;23.87;57.11;98380.78;6016929;23;20184;-92
2022/08/27 02:24:08;;;;;;;5.33;1.53;;;;;;;23.82;57.78;98378.63;6016428;23;20154;-91
2022/08/27 02:26:34;;;;;;;4.63;1.63;;;;;;;23.81;58.35;98377.00;6041313;23;20178;-91
2022/08/27 02:28:59;;;;;;;2.27;1.33;;;;;;;23.82;57.93;98375.13;6016720;23;20153;-92
2022/08/27 02:31:25;;;;;;;3.97;1.67;;;;;;;23.76;58.38;98381.22;6016510;23;20162;-92
2022/08/27 02:33:51;;;;;;;8.80;2.57;;;;;;;23.77;57.78;98381.03;6016620;23;20232;-92
2022/08/27 02:36:17;;;;;;;4.23;2.00;;;;;;;23.72;58.58;98378.06;6016536;23;20642;-92
2022/08/27 02:38:42;;;;;;;10.60;1.97;;;;;;;23.69;58.64;98375.75;6041168;23;20181;-91
2022/08/27 02:41:08;;;;;;;8.00;2.53;;;;;;;23.70;58.80;98379.25;6016738;23;20161;-92
2022/08/27 02:43:33;;;;;;;7.53;2.43;;;;;;;23.69;59.33;98377.59;6042114;23;20150;-92
2022/08/27 02:46:00;;;;;;;3.13;1.60;;;;;;;23.78;58.72;98381.88;6016814;23;20182;-91
2022/08/27 02:48:26;;;;;;;4.83;1.67;;;;;;;23.69;58.19;98386.44;6016090;23;20158;-91
2022/08/27 02:50:52;;;;;;;5.13;1.87;;;;;;;23.63;58.37;98375.66;6017290;23;20240;-93
2022/08/27 02:53:18;;;;;;;3.53;1.87;;;;;;;23.49;58.64;98381.78;6016151;23;20158;-92
2022/08/27 02:55:44;;;;;;;9.43;2.27;;;;;;;23.41;58.81;98373.84;6016251;23;20154;-92
2022/08/27 02:58:11;;;;;;;3.37;1.80;;;;;;;23.37;59.32;98373.38;6016203;23;20165;-90
2022/08/27 03:00:37;;;;;;;4.83;1.90;;;;;;;23.31;58.61;98382.09;6040926;23;20196;-91
2022/08/27 03:03:02;;;;;;;13.43;2.40;;;;;;;23.30;58.00;98383.09;6016266;23;20158;-92
2022/08/27 03:05:28;;;;;;;4.23;2.33;;;;;;;23.21;59.03;98381.50;6016136;23;20181;-92
2022/08/27 03:07:53;;;;;;;6.10;2.00;;;;;;;23.13;60.32;98389.56;6016255;23;20571;-92
2022/08/27 03:10:20;;;;;;;5.40;2.33;;;;;;;23.13;60.02;98389.56;6016216;23;20162;-92
2022/08/27 03:12:47;;;;;;;4.70;2.50;;;;;;;23.15;58.97;98384.88;6015988;23;20169;-92
2022/08/27 03:15:14;;;;;;;5.77;2.27;;;;;;;23.16;58.38;98386.56;6040817;23;20181;-91
2022/08/27 03:20:25;;;;;;;4.30;1.90;;;;;;;23.00;58.10;98382.16;6041175;23;20149;-92
2022/08/27 03:22:51;;;;;;;8.57;2.20;;;;;;;22.95;58.18;98384.53;6016139;23;20271;-91
2022/08/27 03:25:18;;;;;;;4.23;2.17;;;;;;;22.93;58.36;98380.38;6015877;23;20189;-91
2022/08/27 03:27:43;;;;;;;7.57;2.17;;;;;;;22.89;58.78;98387.06;6015932;23;20241;-91
2022/08/27 03:30:14;;;;;;;7.00;1.80;;;;;;;22.84;58.76;98392.09;6040589;23;20511;-92
2022/08/27 03:32:40;;;;;;;5.17;1.80;;;;;;;22.84;58.81;98382.25;6015960;23;20232;-92
2022/08/27 03:35:07;;;;;;;7.60;1.90;;;;;;;22.84;58.47;98390.25;6015562;23;20149;-92
2022/08/27 03:37:32;;;;;;;9.30;2.40;;;;;;;22.92;58.52;98384.88;6015769;23;20505;-92
2022/08/27 03:39:58;;;;;;;4.70;1.83;;;;;;;22.98;58.78;98383.34;6040821;23;20154;-91
2022/08/27 03:42:24;;;;;;;2.87;1.40;;;;;;;22.89;57.69;98395.06;6015781;23;20157;-93
2022/08/27 03:44:49;;;;;;;9.17;1.77;;;;;;;22.87;58.29;98389.91;6015558;23;20270;-91
2022/08/27 03:47:15;;;;;;;3.70;1.80;;;;;;;22.90;58.65;98394.06;6040413;23;20193;-92
2022/08/27 03:49:41;;;;;;;2.67;1.40;;;;;;;22.89;58.76;98403.09;6016170;23;20162;-91
2022/08/27 03:52:07;;;;;;;7.07;1.83;;;;;;;22.81;58.10;98406.63;6015663;23;20597;-91
2022/08/27 03:54:37;;;;;;;8.37;2.03;;;;;;;22.84;58.57;98402.78;6015641;23;20233;-91
2022/08/27 03:57:04;;;;;;;4.40;1.73;;;;;;;22.80;58.54;98401.47;6015517;23;20165;-91
2022/08/27 03:59:29;;;;;;;4.17;2.03;;;;;;;22.62;59.06;98410.56;6040696;23;20153;-91
2022/08/27 04:01:55;;;;;;;4.33;1.73;;;;;;;22.54;59.25;98410.56;6040634;23;20153;-91
2022/08/27 04:04:22;;;;;;;5.43;2.10;;;;;;;22.60;59.78;98407.22;6040437;23;20182;-91
2022/08/27 04:06:48;;;;;;;6.40;2.53;;;;;;;22.69;59.19;98405.38;6040098;23;20195;-91
2022/08/27 04:09:14;;;;;;;4.27;1.70;;;;;;;22.76;59.44;98419.69;6040655;23;20154;-91
2022/08/27 04:11:39;;;;;;;4.77;1.83;;;;;;;22.86;59.71;98417.63;6015665;23;20196;-91
2022/08/27 04:14:05;;;;;;;3.73;1.53;;;;;;;22.96;59.66;98428.09;6040895;23;20153;-91
2022/08/27 04:16:34;;;;;;;9.70;2.00;;;;;;;22.94;59.93;98419.41;6040353;23;20154;-92
2022/08/27 04:19:01;;;;;;;8.13;2.60;;;;;;;22.96;59.33;98422.75;6040307;23;20154;-91
2022/08/27 04:21:26;;;;;;;3.83;1.90;;;;;;;22.99;59.23;98427.75;6015712;23;20169;-92
2022/08/27 04:23:52;;;;;;;5.20;2.03;;;;;;;23.02;59.06;98422.88;6015773;23;20158;-91
2022/08/27 04:26:18;;;;;;;6.40;1.83;;;;;;;23.08;59.75;98432.06;6040036;23;20268;-91
2022/08/27 04:28:43;;;;;;;7.53;1.87;;;;;;;23.09;59.99;98429.19;6041233;23;20154;-91
2022/08/27 04:31:09;;;;;;;5.57;2.37;;;;;;;23.18;59.10;98432.66;6015555;23;20192;-92
2022/08/27 04:33:35;;;;;;;4.53;1.90;;;;;;;23.24;59.26;98429.28;6016105;23;20601;-91
2022/08/27 04:36:04;;;;;;;3.90;1.70;;;;;;;23.29;59.30;98434.09;6015272;23;20202;-91
2022/08/27 04:38:30;;;;;;;4.90;1.93;;;;;;;23.36;59.49;98425.16;6040113;23;20216;-91
2022/08/27 04:43:40;;;;;;;7.10;2.93;;;;;;;23.49;58.54;98436.13;6040264;23;20683;-93
2022/08/27 04:46:06;;;;;;;6.47;1.90;;;;;;;23.56;58.04;98433.56;6040257;23;20217;-91
2022/08/27 04:48:31;;;;;;;9.57;2.57;;;;;;;23.68;57.74;98429.47;6015218;23;20504;-91
2022/08/27 04:50:57;;;;;;;4.47;2.33;;;;;;;23.78;57.40;98438.06;6015319;23;20162;-92
2022/08/27 04:53:23;;;;;;;3.57;1.90;;;;;;;23.88;57.32;98435.13;6015316;23;20166;-92
2022/08/27 04:55:53;;;;;;;9.17;2.57;;;;;;;23.90;57.16;98430.44;6040012;23;20597;-91
2022/08/27 04:58:20;;;;;;;6.53;2.40;;;;;;;23.96;57.52;98429.69;6040728;23;20459;-91
2022/08/27 05:00:48;;;;;;;6.13;1.87;;;;;;;24.00;57.43;98439.88;6015369;23;20161;-92
2022/08/27 05:03:15;;;;;;;10.50;2.73;;;;;;;24.00;57.50;98439.03;6039931;23;20160;-91
2022/08/27 05:05:42;;;;;;;11.80;1.90;;;;;;;23.97;56.65;98439.41;6015319;23;20193;-91
2022/08/27 05:08:09;;;;;;;5.37;2.07;;;;;;;23.96;56.72;98443.91;6015320;23;20245;-91
2022/08/27 05:10:46;;;;;;;2.57;1.30;;;;;;;24.05;56.82;98442.84;6015268;23;20157;-91
2022/08/27 05:13:12;;;;;;;8.80;2.07;;;;;;;24.16;55.78;98441.59;6015309;23;20150;-93
2022/08/27 05:15:39;;;;;;;3.97;2.10;;;;;;;24.29;55.97;98449.81;6015390;23;20197;-92
2022/08/27 05:18:06;;;;;;;3.63;1.70;;;;;;;24.40;56.03;98450.19;6015099;23;20166;-91
2022/08/27 05:20:33;;;;;;;7.27;2.50;;;;;;;24.43;56.21;98451.66;6015263;23;20546;-91
2022/08/27 05:22:58;;;;;;;6.30;1.80;;;;;;;24.57;55.56;98455.38;6015198;23;20177;-91
2022/08/27 05:25:25;;;;;;;3.07;1.93;;;;;;;24.67;55.08;98454.06;6015125;23;20185;-92
2022/08/27 05:27:51;;;;;;;7.70;1.77;;;;;;;24.93;55.39;98454.44;6015291;23;20575;-92
2022/08/27 05:30:17;;;;;;;6.57;2.33;;;;;;;25.29;54.48;98458.97;6015271;23;20194;-92
2022/08/27 05:32:43;;;;;;;7.80;2.40;;;;;;;25.51;53.85;98447.25;6039870;23;20157;-92
2022/08/27 05:35:09;;;;;;;5.00;1.73;;;;;;;25.71;53.72;98453.63;6015732;23;20233;-93
2022/08/27 05:37:35;;;;;;;9.93;1.97;;;;;;;25.87;52.95;98452.53;6015497;23;20240;-92
2022/08/27 05:40:02;;;;;;;6.40;2.30;;;;;;;26.07;52.10;98453.53;6016290;23;20168;-92
2022/08/27 05:42:31;;;;;;;3.70;2.17;;;;;;;26.27;51.33;98459.06;6015216;23;20165;-93
2022/08/27 05:44:57;;;;;;;19.43;3.63;;;;;;;26.46;49.53;98463.75;6015334;23;20214;-90
2022/08/27 05:47:23;;;;;;;6.80;2.07;;;;;;;26.60;48.85;98465.47;6040473;23;20154;-94
2022/08/27 05:49:53;;;;;;;5.00;2.03;;;;;;;26.83;48.22;98458.00;6015548;23;20168;-92
2022/08/27 05:52:20;;;;;;;9.20;2.50;;;;;;;27.07;47.50;98467.41;6015315;23;20196;-93
2022/08/27 05:54:46;;;;;;;6.03;1.90;;;;;;;27.06;46.46;98473.78;6015458;23;20158;-93
2022/08/27 05:57:12;;;;;;;12.37;2.77;;;;;;;26.88;45.12;98465.44;6015176;23;20158;-93
2022/08/27 06:02:21;;;;;;;11.00;3.03;;;;;;;27.15;46.43;98459.97;6042053;23;20145;-92
2022/08/27 06:04:47;;;;;;;8.70;2.30;;;;;;;27.09;44.53;98459.94;6016767;23;20165;-92
2022/08/27 06:07:15;;;;;;;12.77;2.37;;;;;;;27.16;45.50;98466.16;6016924;23;20193;-93
2022/08/27 06:09:42;;;;;;;15.82;1.77;;;;;;;27.12;46.18;98471.13;6016904;23;20221;-93
2022/08/27 06:12:10;;;;;;;4.35;1.90;;;;;;;27.17;45.19;98474.06;6017176;23;20157;-92
2022/08/27 06:14:39;;;;;;;3.13;1.73;;;;;;;27.14;45.46;98469.06;6017189;23;20162;-92
2022/08/27 06:17:07;;;;;;;4.93;2.10;;;;;;;27.25;45.65;98471.16;6017147;23;20154;-93
2022/08/27 06:19:35;;;;;;;9.60;2.27;;;;;;;27.29;45.49;98466.22;6016590;23;20498;-92
2022/08/27 06:22:01;;;;;;;5.22;2.22;;;;;;;27.41;45.75;98464.63;6017377;23;20237;-93
2022/08/27 06:24:27;;;;;;;4.07;2.03;;;;;;;27.62;45.90;98469.03;6016801;23;20514;-92
2022/08/27 06:26:56;;;;;;;6.68;2.28;;;;;;;27.76;45.60;98468.00;6017035;23;20249;-93
2022/08/27 06:29:22;;;;;;;10.18;2.72;;;;;;;27.92;46.26;98462.19;6016793;23;20162;-92
2022/08/27 06:31:49;;;;;;;5.28;2.15;;;;;;;28.14;45.10;98461.00;6016989;23;20168;-93
2022/08/27 06:34:14;;;;;;;6.10;2.08;;;;;;;28.44;44.47;98467.56;6017190;23;20157;-92
2022/08/27 06:36:41;;;;;;;11.82;2.45;;;;;;;28.70;43.64;98469.41;6016434;23;20582;-92
2022/08/27 06:39:08;;;;;;;6.53;2.30;;;;;;;28.90;43.45;98466.66;6016561;23;20165;-91
2022/08/27 06:41:33;;;;;;;12.55;2.28;;;;;;;29.02;40.79;98470.34;6016384;23;20162;-93
2022/08/27 06:44:00;;;;;;;5.43;2.67;;;;;;;29.56;40.45;98478.00;6016609;23;20172;-92
2022/08/27 06:46:28;;;;;;;7.00;2.08;;;;;;;29.93;38.90;98476.31;6017307;23;20186;-92
2022/08/27 06:49:02;;;;;;;4.20;1.90;;;;;;;30.14;38.59;98474.03;6016454;23;20158;-94
2022/08/27 06:51:39;;;;;;;5.85;1.88;;;;;;;30.25;37.64;98486.00;6016621;23;20154;-94
2022/08/27 06:54:25;;;;;;;4.68;1.95;;;;;;;30.63;37.84;98483.19;6016555;23;20153;-93
2022/08/27 06:57:14;;;;;;;5.45;1.45;;;;;;;30.75;37.54;98482.22;6015854;23;20160;-94
2022/08/27 06:59:43;;;;;;;10.02;2.25;;;;;;;30.99;35.87;98494.88;6016370;23;20150;-95
2022/08/27 07:02:12;;;;;;;7.57;1.80;;;;;;;31.17;37.83;98493.19;6017241;23;20158;-92
2022/08/27 07:04:42;;;;;;;3.28;1.60;;;;;;;31.53;36.18;98491.28;6016567;23;20586;-95
2022/08/27 07:07:13;;;;;;;4.03;1.55;;;;;;;31.81;35.48;98501.50;6017013;23;20188;-93
2022/08/27 07:09:38;;;;;;;11.82;2.95;;;;;;;32.04;36.34;98498.88;6016269;23;20158;-94
2022/08/27 07:12:05;;;;;;;8.40;2.05;;;;;;;32.06;35.27;98494.03;6016319;23;20237;-93
2022/08/27 07:15:21;;;;;;;;;;;;;;;;;;;;;
2022/08/27 07:22:00;;;;;;;5.40;2.08;;;;;;;32.94;35.44;98496.63;5926706;24;20168;-94
2022/08/27 07:27:54;;;;;;;8.27;1.90;;;;;;;32.79;33.92;98496.31;5899207;24;20613;-94
2022/08/27 07:30:58;;;;;;;5.68;2.20;;;;;;;32.78;33.53;98505.53;5832183;24;20165;-94
2022/08/27 07:37:29;;;;;;;5.63;1.75;;;;;;;32.85;32.99;98505.41;5910070;24;20182;-94
2022/08/27 07:40:55;;;;;;;7.65;1.95;;;;;;;32.78;32.30;98500.13;5901327;24;20172;-95
2022/08/27 07:47:00;;;;;;;;;;;;;;;;;;;;;
2022/08/27 07:49:37;;;;;;;;;;;;;;;;;;;;;
2022/08/27 07:52:44;;;;;;;3.90;1.60;;;;;;;33.23;30.96;98503.81;5872911;24;20240;-94
2022/08/27 07:55:29;;;;;;;4.93;1.48;;;;;;;33.28;32.36;98509.34;5849727;24;20231;-96
2022/08/27 07:57:55;;;;;;;4.32;1.77;;;;;;;33.03;31.90;98506.06;5872786;24;20166;-93
2022/08/27 08:00:29;;;;;;;5.65;1.83;;;;;;;32.89;32.21;98504.66;5890690;24;20244;-94
2022/08/27 08:03:30;;;;;;;;;;;;;;;;;;;;;
2022/08/27 08:06:48;;;;;;;4.53;1.75;;;;;;;32.99;31.97;98498.66;5954637;23;20248;-95
2022/08/27 08:09:24;;;;;;;3.70;1.55;;;;;;;33.02;31.52;98506.34;5823610;24;20200;-93
2022/08/27 08:11:58;;;;;;;6.05;1.90;;;;;;;33.12;31.64;98498.41;5845916;24;20565;-94
2022/08/27 08:15:14;;;;;;;8.13;1.70;;;;;;;33.20;32.64;98490.69;5823570;24;20176;-95
2022/08/27 08:25:04;;;;;;;3.92;1.80;;;;;;;33.81;31.71;98497.31;5943449;23;20216;-95
2022/08/27 08:35:09;;;;;;;4.28;1.20;;;;;;;34.14;31.43;98502.00;6040765;23;20180;-96
2022/08/27 08:37:55;;;;;;;7.10;1.80;;;;;;;34.05;30.30;98498.84;5970569;23;20174;-96
2022/08/27 08:40:57;;;;;;;3.90;1.60;;;;;;;34.00;30.66;98502.31;5987530;23;20147;-93
2022/08/27 08:43:36;;;;;;;6.22;1.80;;;;;;;34.21;30.18;98495.34;5905361;23;20160;-94
2022/08/27 08:46:27;;;;;;;5.85;1.63;;;;;;;34.40;31.14;98496.72;5987312;23;20194;-95
2022/08/27 08:49:16;;;;;;;3.25;2.00;;;;;;;34.59;30.68;98489.94;5986449;23;20163;-95
2022/08/27 08:52:28;;;;;;;4.85;1.60;;;;;;;34.90;29.94;98484.94;5988388;23;20147;-95
2022/08/27 08:55:18;;;;;;;4.47;1.88;;;;;;;35.09;30.21;98491.78;5986537;23;20158;-95
2022/08/27 08:58:02;;;;;;;;;;;;;;;;;;;;;
2022/08/27 09:01:26;;;;;;;5.78;2.28;;;;;;;35.29;29.59;98483.00;6012438;23;20642;-95
2022/08/27 09:03:56;;;;;;;4.30;1.88;;;;;;;35.45;28.60;98479.38;5905045;23;20182;-95
2022/08/27 09:06:34;;;;;;;1.83;1.10;;;;;;;35.36;28.24;98489.91;5987378;23;20201;-92
2022/08/27 09:09:20;;;;;;;4.88;1.85;;;;;;;35.52;28.14;98479.97;5987323;23;20158;-96
2022/08/27 09:12:33;;;;;;;7.72;1.63;;;;;;;36.03;28.48;98486.81;5988398;23;20222;-96
2022/08/27 09:15:27;;;;;;;6.80;1.52;;;;;;;36.09;28.40;98493.94;5904803;24;20239;-95
2022/08/27 09:18:13;;;;;;;4.57;1.40;;;;;;;36.24;27.20;98480.44;5987702;23;20169;-95
2022/08/27 09:20:44;;;;;;;3.30;1.33;;;;;;;36.30;26.37;98490.28;5987659;23;20229;-95
2022/08/27 09:24:01;;;;;;;3.30;1.10;;;;;;;36.51;26.47;98481.19;5987638;23;20630;-96
2022/08/27 09:26:37;;;;;;;3.10;1.23;;;;;;;36.52;26.61;98477.38;5903913;24;20522;-95
2022/08/27 09:29:38;;;;;;;5.00;1.73;;;;;;;36.78;25.88;98481.91;5977459;23;20556;-95
2022/08/27 09:32:08;;;;;;;2.28;1.13;;;;;;;36.82;26.31;98477.56;5987041;23;20193;-95
2022/08/27 09:34:36;;;;;;;2.80;1.38;;;;;;;36.73;25.12;98483.78;5988242;23;20159;-95
2022/08/27 09:38:07;;;;;;;3.95;1.40;;;;;;;36.79;25.37;98478.06;6014676;23;20252;-95
2022/08/27 09:40:49;;;;;;;6.05;2.10;;;;;;;36.73;25.70;98465.50;6000651;23;20168;-93
2022/08/27 09:43:43;;;;;;;6.82;1.48;;;;;;;36.75;25.19;98467.94;6018086;23;20566;-96
2022/08/27 09:46:21;;;;;;;1.77;0.93;;;;;;;36.75;25.45;98460.59;6017625;23;20182;-95
2022/08/27 09:48:49;;;;;;;5.72;1.60;;;;;;;37.03;24.19;98464.03;6017325;23;20153;-95
2022/08/27 09:51:25;;;;;;;5.50;1.75;;;;;;;37.07;25.24;98465.13;6017313;23;20165;-96
2022/08/27 09:54:23;;;;;;;7.72;1.50;;;;;;;37.29;24.97;98466.56;6017782;23;20162;-95
2022/08/27 09:56:57;;;;;;;5.30;1.35;;;;;;;37.31;24.32;98469.06;6020562;23;20555;-96
2022/08/27 09:59:36;;;;;;;3.05;1.25;;;;;;;37.45;24.44;98462.81;6017069;23;20153;-94
2022/08/27 10:05:15;;;;;;;3.97;1.67;;;;;;;37.91;23.94;98468.41;6041682;23;20176;-95
2022/08/27 10:07:56;;;;;;;2.72;1.58;;;;;;;38.00;23.79;98464.81;6018009;23;20157;-93
2022/08/27 10:10:34;;;;;;;2.42;1.10;;;;;;;37.99;22.85;98470.59;6017258;23;20158;-95
2022/08/27 10:13:26;;;;;;;3.42;1.10;;;;;;;38.18;23.15;98457.19;6017462;23;20149;-96
2022/08/27 10:16:32;;;;;;;;;;;;;;;;;;;;;
2022/08/27 10:19:15;;;;;;;4.25;1.20;;;;;;;38.48;24.15;98457.16;6041901;23;20233;-96
2022/08/27 10:21:58;;;;;;;3.00;1.13;;;;;;;38.52;22.76;98450.03;6018085;23;20168;-96
2022/08/27 10:24:23;;;;;;;2.58;1.45;;;;;;;38.39;23.36;98456.91;6016929;23;20157;-96
2022/08/27 10:26:56;;;;;;;3.55;1.30;;;;;;;38.68;24.21;98457.91;6016768;23;20190;-95
2022/08/27 10:29:42;;;;;;;2.15;1.08;;;;;;;38.87;22.48;98452.69;6017213;23;20157;-95
2022/08/27 10:32:17;;;;;;;5.40;1.80;;;;;;;38.98;23.24;98454.28;6016721;23;20146;-95
2022/08/27 10:35:03;;;;;;;4.95;1.70;;;;;;;39.23;23.08;98451.44;6017886;23;20145;-96
2022/08/27 10:37:51;;;;;;;12.98;2.53;;;;;;;38.90;21.90;98462.28;6017814;23;20169;-96
2022/08/27 10:40:35;;;;;;;3.60;1.23;;;;;;;38.82;23.25;98454.63;6017895;23;20160;-95
2022/08/27 10:43:14;;;;;;;9.57;1.60;;;;;;;39.08;22.91;98451.50;6016916;23;20210;-94
2022/08/27 10:46:06;;;;;;;6.45;1.40;;;;;;;39.19;21.80;98444.09;6017533;23;20178;-93
2022/08/27 10:48:42;;;;;;;3.47;1.13;;;;;;;38.84;22.02;98450.50;5949984;23;20162;-94
2022/08/27 10:51:24;;;;;;;6.10;1.67;;;;;;;39.22;22.67;98446.25;6016730;23;20141;-94
2022/08/27 10:53:59;;;;;;;3.63;2.03;;;;;;;39.53;23.80;98452.38;6016674;23;20160;-93
2022/08/27 10:56:31;;;;;;;4.88;1.85;;;;;;;39.37;22.21;98442.59;6016554;23;20153;-95
2022/08/27 10:59:22;;;;;;;7.70;1.55;;;;;;;39.39;22.17;98437.69;6016727;23;20149;-96
2022/08/27 11:02:08;;;;;;;9.07;1.55;;;;;;;39.09;21.37;98441.38;6016660;23;20154;-95
2022/08/27 11:04:40;;;;;;;2.42;0.90;;;;;;;39.36;22.12;98440.97;6017586;23;20226;-96
2022/08/27 11:07:29;;;;;;;6.00;1.30;;;;;;;39.38;22.09;98433.28;6016487;23;20202;-94
2022/08/27 11:10:00;;;;;;;5.32;2.00;;;;;;;39.43;21.54;98427.75;6016626;23;20143;-96
2022/08/27 11:12:36;;;;;;;3.65;1.63;;;;;;;39.54;21.99;98438.41;6017630;23;20283;-95
2022/08/27 11:15:30;;;;;;;5.28;1.25;;;;;;;39.99;21.10;98433.69;6020200;23;20154;-96
2022/08/27 11:18:10;;;;;;;2.63;1.08;;;;;;;40.25;20.73;98437.88;6020799;23;20165;-96
2022/08/27 11:20:54;;;;;;;7.07;1.67;;;;;;;40.47;21.24;98429.97;6018873;23;20582;-96
2022/08/27 11:23:44;;;;;;;6.32;1.50;;;;;;;40.26;20.90;98442.25;6017411;23;20229;-94
2022/08/27 11:26:11;;;;;;;10.07;1.55;;;;;;;40.20;21.70;98429.69;6017166;23;20182;-96
2022/08/27 11:28:58;;;;;;;2.03;0.95;;;;;;;40.04;20.62;98431.72;6016271;23;20165;-94
2022/08/27 11:31:57;;;;;;;3.47;1.10;;;;;;;40.00;20.92;98425.16;6016347;23;20168;-94
2022/08/27 11:34:40;;;;;;;6.93;2.15;;;;;;;39.90;20.63;98419.75;6016578;23;20181;-96
2022/08/27 11:37:36;;;;;;;7.03;1.52;;;;;;;40.01;20.63;98412.25;6017890;23;20169;-96
2022/08/27 11:40:16;;;;;;;3.97;1.10;;;;;;;40.16;21.81;98410.22;6016818;23;20182;-96
2022/08/27 11:42:48;;;;;;;5.72;1.95;;;;;;;40.39;21.19;98406.69;6022342;23;20197;-94
2022/08/27 11:45:33;;;;;;;21.83;2.67;;;;;;;40.51;22.50;98409.06;6017156;23;20310;-94
2022/08/27 11:48:01;;;;;;;8.15;2.20;;;;;;;40.31;22.57;98404.56;6015890;23;20146;-93
2022/08/27 11:50:32;;;;;;;3.30;1.27;;;;;;;40.36;21.34;98411.94;6016005;23;20168;-94
2022/08/27 11:53:04;;;;;;;5.47;1.50;;;;;;;40.29;21.56;98408.72;6016028;23;20166;-95
2022/08/27 11:55:37;;;;;;;3.35;1.23;;;;;;;40.29;22.73;98403.22;6016045;23;20206;-94
2022/08/27 11:58:18;;;;;;;4.63;1.38;;;;;;;40.37;22.07;98397.91;6015625;23;20165;-93
2022/08/27 12:00:45;;;;;;;4.65;1.23;;;;;;;40.34;22.19;98401.25;6015955;23;20490;-94
2022/08/27 12:03:20;;;;;;;5.30;1.55;;;;;;;40.15;21.31;98403.06;6016083;23;20184;-94
2022/08/27 12:05:51;;;;;;;7.63;1.70;;;;;;;39.96;21.65;98396.66;6015775;23;20264;-95
2022/08/27 12:08:17;;;;;;;3.75;1.50;;;;;;;40.29;21.98;98395.81;6015952;23;20240;-95
2022/08/27 12:10:50;;;;;;;6.20;1.20;;;;;;;40.21;21.24;98388.19;6016107;23;20158;-94
2022/08/27 12:13:28;;;;;;;5.80;1.13;;;;;;;40.35;20.71;98383.66;6016808;23;20169;-93
2022/08/27 12:16:05;;;;;;;4.72;1.08;;;;;;;40.36;20.91;98374.28;6016159;23;20241;-95
2022/08/27 12:18:48;;;;;;;5.55;1.30;;;;;;;40.61;21.21;98381.47;6017601;23;20153;-95
2022/08/27 12:21:38;;;;;;;11.98;1.83;;;;;;;40.76;20.55;98386.78;6015787;23;20232;-95
2022/08/27 12:24:40;;;;;;;6.80;1.70;;;;;;;40.63;20.66;98375.66;6030307;23;20142;-96
2022/08/27 12:27:23;;;;;;;10.32;2.63;;;;;;;40.51;20.70;98370.59;6016014;23;20245;-93
2022/08/27 12:30:02;;;;;;;4.78;1.55;;;;;;;40.39;21.00;98376.47;6019814;23;20162;-95
2022/08/27 12:32:37;;;;;;;10.45;1.85;;;;;;;40.78;21.11;98370.78;6016339;23;20161;-94
2022/08/27 12:35:19;;;;;;;7.00;1.58;;;;;;;41.17;20.61;98373.34;6015561;23;20156;-95
2022/08/27 12:37:54;;;;;;;3.47;1.23;;;;;;;41.03;20.02;98372.44;6017569;23;20150;-96
2022/08/27 12:40:24;;;;;;;3.17;1.42;;;;;;;40.89;20.32;98369.59;6016290;23;20690;-95
2022/08/27 12:42:51;;;;;;;6.35;2.08;;;;;;;40.85;21.11;98364.94;6017204;23;20177;-95
2022/08/27 12:45:24;;;;;;;5.38;1.38;;;;;;;40.91;20.15;98363.81;6015796;23;20168;-94
2022/08/27 12:47:52;;;;;;;8.40;1.45;;;;;;;41.14;20.61;98360.19;6016019;23;20153;-95
2022/08/27 12:50:27;;;;;;;4.60;1.50;;;;;;;41.44;19.89;98359.72;6015677;23;20493;-94